createdAt,value
2019-01-20T00:00:53.607Z,72.09
2019-01-20T00:03:23.192Z,72.05
2019-01-20T00:05:52.517Z,71.54
2019-01-20T00:08:21.926Z,71.60
2019-01-20T00:10:51.306Z,71.58
2019-01-20T00:13:20.959Z,71.15
2019-01-20T00:15:50.492Z,71.18
2019-01-20T00:18:19.821Z,70.95
2019-01-20T00:20:49.179Z,70.97
2019-01-20T00:23:18.676Z,71.04
2019-01-20T00:25:47.974Z,71.23
2019-01-20T00:28:17.611Z,71.05
2019-01-20T00:30:46.967Z,71.12
2019-01-20T00:33:20.475Z,70.69
2019-01-20T00:35:49.876Z,70.07
2019-01-20T00:38:19.496Z,70.07
2019-01-20T00:40:48.882Z,70.38
2019-01-20T00:43:18.230Z,69.77
2019-01-20T00:45:47.849Z,69.32
2019-01-20T00:48:17.224Z,68.61
2019-01-20T00:50:46.861Z,69.28
2019-01-20T00:53:16.254Z,69.26
2019-01-20T00:55:45.852Z,69.43
2019-01-20T00:58:15.256Z,69.02
2019-01-20T01:00:44.892Z,69.50
2019-01-20T01:03:14.199Z,69.42
2019-01-20T01:05:43.850Z,69.59
2019-01-20T01:08:13.441Z,69.69
2019-01-20T01:10:42.786Z,69.96
2019-01-20T01:13:12.393Z,70.18
2019-01-20T01:15:41.976Z,70.40
2019-01-20T01:18:11.578Z,70.37
2019-01-20T01:20:41.176Z,70.47
2019-01-20T01:23:10.788Z,70.54
2019-01-20T01:25:40.404Z,70.11
2019-01-20T01:28:09.782Z,70.48
2019-01-20T01:30:39.407Z,70.43
2019-01-20T01:33:09.065Z,70.45
2019-01-20T01:35:38.398Z,70.48
2019-01-20T01:38:08.046Z,70.63
2019-01-20T01:40:37.511Z,70.73
2019-01-20T01:43:07.143Z,70.25
2019-01-20T01:45:36.735Z,70.53
2019-01-20T01:48:06.343Z,70.66
2019-01-20T01:50:36.022Z,70.98
2019-01-20T01:53:06.273Z,70.83
2019-01-20T01:55:36.226Z,70.86
2019-01-20T01:58:07.562Z,71.09
2019-01-20T02:00:36.894Z,70.86
2019-01-20T02:03:06.250Z,71.04
2019-01-20T02:05:35.857Z,71.34
2019-01-20T02:08:05.292Z,71.45
2019-01-20T02:10:34.643Z,71.44
2019-01-20T02:13:04.854Z,71.59
2019-01-20T02:15:34.174Z,71.58
2019-01-20T02:18:03.745Z,71.77
2019-01-20T02:20:35.067Z,72.33
2019-01-20T02:23:05.761Z,72.42
2019-01-20T02:25:35.465Z,72.68
2019-01-20T02:28:04.826Z,72.67
2019-01-20T02:30:34.169Z,72.63
2019-01-20T02:33:06.456Z,72.66
2019-01-20T02:35:38.879Z,72.68
2019-01-20T02:38:08.231Z,72.84
2019-01-20T02:40:42.574Z,73.07
2019-01-20T02:43:13.982Z,73.40
2019-01-20T02:45:43.070Z,73.44
2019-01-20T02:48:12.418Z,73.76
2019-01-20T02:50:42.746Z,73.86
2019-01-20T02:53:12.069Z,73.57
2019-01-20T02:55:41.481Z,73.72
2019-01-20T02:58:10.846Z,73.73
2019-01-20T03:00:42.157Z,73.81
2019-01-20T03:03:11.763Z,73.80
2019-01-20T03:05:41.135Z,73.83
2019-01-20T03:08:10.982Z,73.95
2019-01-20T03:10:40.284Z,74.11
2019-01-20T03:13:14.237Z,74.16
2019-01-20T03:15:46.864Z,74.24
2019-01-20T03:18:16.474Z,74.01
2019-01-20T03:20:47.615Z,74.31
2019-01-20T03:23:17.535Z,74.14
2019-01-20T03:25:49.922Z,74.19
2019-01-20T03:28:19.260Z,74.43
2019-01-20T03:30:48.588Z,74.35
2019-01-20T03:33:18.358Z,74.32
2019-01-20T03:35:47.688Z,74.40
2019-01-20T03:38:17.320Z,74.49
2019-01-20T03:40:46.932Z,74.37
2019-01-20T03:43:16.537Z,74.44
2019-01-20T03:45:50.762Z,74.48
2019-01-20T03:48:20.376Z,74.49
2019-01-20T03:50:50.806Z,74.97
2019-01-20T03:53:20.707Z,74.73
2019-01-20T03:55:50.123Z,75.00
2019-01-20T03:58:20.331Z,75.24
2019-01-20T04:00:52.932Z,75.17
2019-01-20T04:03:22.627Z,75.44
2019-01-20T04:05:52.908Z,75.39
2019-01-20T04:08:24.103Z,75.34
2019-01-20T04:10:54.792Z,75.43
2019-01-20T04:13:24.320Z,75.57
2019-01-20T04:15:54.525Z,76.25
2019-01-20T04:18:26.325Z,76.70
2019-01-20T04:20:56.543Z,76.33
2019-01-20T04:23:27.484Z,76.50
2019-01-20T04:25:56.818Z,76.63
2019-01-20T04:28:26.451Z,76.53
2019-01-20T04:30:59.117Z,76.45
2019-01-20T04:33:33.358Z,76.27
2019-01-20T04:36:04.420Z,76.46
2019-01-20T04:38:37.898Z,76.82
2019-01-20T04:41:07.238Z,76.84
2019-01-20T04:43:39.859Z,76.91
2019-01-20T04:46:09.199Z,77.19
2019-01-20T04:48:39.748Z,77.22
2019-01-20T04:51:11.575Z,77.15
2019-01-20T04:53:47.545Z,77.01
2019-01-20T04:56:20.830Z,76.94
2019-01-20T04:58:57.187Z,77.36
2019-01-20T05:01:26.550Z,77.49
2019-01-20T05:03:56.193Z,77.60
2019-01-20T05:06:26.494Z,77.41
2019-01-20T05:08:57.343Z,77.17
2019-01-20T05:11:28.155Z,77.08
2019-01-20T05:13:57.486Z,77.39
2019-01-20T05:16:28.772Z,77.36
2019-01-20T05:18:58.211Z,77.54
2019-01-20T05:21:33.470Z,77.51
2019-01-20T05:24:05.630Z,77.18
2019-01-20T05:26:34.950Z,77.29
2019-01-20T05:29:04.565Z,77.38
2019-01-20T05:31:33.890Z,77.16
2019-01-20T05:34:03.233Z,77.62
2019-01-20T05:36:32.626Z,77.76
2019-01-20T05:39:02.207Z,77.78
2019-01-20T05:41:31.550Z,78.21
2019-01-20T05:44:01.213Z,77.99
2019-01-20T05:46:32.330Z,77.77
2019-01-20T05:49:08.262Z,77.82
2019-01-20T05:51:41.352Z,78.10
2019-01-20T05:54:10.697Z,78.16
2019-01-20T05:56:40.415Z,78.53
2019-01-20T05:59:10.887Z,78.60
2019-01-20T06:01:41.978Z,78.58
2019-01-20T06:04:13.607Z,78.64
2019-01-20T06:06:44.776Z,78.74
2019-01-20T06:09:14.485Z,78.74
2019-01-20T06:11:43.834Z,79.09
2019-01-20T06:14:17.783Z,79.00
2019-01-20T06:16:47.507Z,78.75
2019-01-20T06:19:17.219Z,79.07
2019-01-20T06:21:46.537Z,78.95
2019-01-20T06:24:16.230Z,79.24
2019-01-20T06:26:46.025Z,79.18
2019-01-20T06:29:18.978Z,79.43
2019-01-20T06:31:50.484Z,78.90
2019-01-20T06:34:20.798Z,79.20
2019-01-20T06:36:55.523Z,79.23
2019-01-20T06:39:24.878Z,79.44
2019-01-20T06:41:54.358Z,79.50
2019-01-20T06:44:26.523Z,79.43
2019-01-20T06:46:57.104Z,79.50
2019-01-20T06:49:26.521Z,79.13
2019-01-20T06:51:58.444Z,79.61
2019-01-20T06:54:27.764Z,79.48
2019-01-20T06:56:59.661Z,79.56
2019-01-20T06:59:29.759Z,79.80
2019-01-20T07:01:59.168Z,79.75
2019-01-20T07:04:29.397Z,79.89
2019-01-20T07:07:00.721Z,79.59
2019-01-20T07:09:30.507Z,79.61
2019-01-20T07:11:59.876Z,79.58
2019-01-20T07:14:31.737Z,79.28
2019-01-20T07:17:01.418Z,78.82
2019-01-20T07:19:31.029Z,79.18
2019-01-20T07:22:00.661Z,78.87
2019-01-20T07:24:30.346Z,78.76
2019-01-20T07:27:00.109Z,78.42
2019-01-20T07:29:36.062Z,78.69
2019-01-20T07:32:05.401Z,78.81
2019-01-20T07:34:35.036Z,78.90
2019-01-20T07:37:04.372Z,78.62
2019-01-20T07:39:34.052Z,78.66
2019-01-20T07:42:06.647Z,78.66
2019-01-20T07:44:36.067Z,78.49
2019-01-20T07:47:06.439Z,78.38
2019-01-20T07:49:36.070Z,78.66
2019-01-20T07:52:06.997Z,90.47
2019-01-20T07:54:37.731Z,92.26
2019-01-20T07:57:07.344Z,92.18
2019-01-20T07:59:42.654Z,89.69
2019-01-20T08:02:12.019Z,86.16
2019-01-20T08:04:45.085Z,86.54
2019-01-20T08:07:17.972Z,84.15
2019-01-20T08:09:47.395Z,84.15
2019-01-20T08:12:23.443Z,84.17
2019-01-20T08:14:50.765Z,82.26
2019-01-20T08:17:20.093Z,80.28
2019-01-20T08:19:50.917Z,79.37
2019-01-20T08:22:20.254Z,78.90
2019-01-20T08:24:49.747Z,78.08
2019-01-20T08:27:19.093Z,77.66
2019-01-20T08:29:49.491Z,76.97
2019-01-20T08:32:19.794Z,76.51
2019-01-20T08:34:49.472Z,76.76
2019-01-20T08:37:19.187Z,77.40
2019-01-20T08:39:48.555Z,77.31
2019-01-20T08:42:17.900Z,75.72
2019-01-20T08:44:48.948Z,77.68
2019-01-20T08:47:20.057Z,75.77
2019-01-20T08:49:49.677Z,75.51
2019-01-20T08:52:19.384Z,75.18
2019-01-20T08:54:48.991Z,74.83
2019-01-20T08:57:18.340Z,74.53
2019-01-20T08:59:53.124Z,75.58
2019-01-20T09:02:22.465Z,75.45
2019-01-20T09:04:52.147Z,75.07
2019-01-20T09:07:21.950Z,74.56
2019-01-20T09:09:51.320Z,74.37
2019-01-20T09:12:20.952Z,74.09
2019-01-20T09:14:50.671Z,73.88
2019-01-20T09:17:20.367Z,73.67
2019-01-20T09:19:49.779Z,73.44
2019-01-20T09:22:19.486Z,72.66
2019-01-20T09:24:48.985Z,72.32
2019-01-20T09:27:18.594Z,72.03
2019-01-20T09:29:48.303Z,71.48
2019-01-20T09:32:17.932Z,71.96
2019-01-20T09:34:47.665Z,72.24
2019-01-20T09:37:17.238Z,72.43
2019-01-20T09:39:46.841Z,72.44
2019-01-20T09:42:16.464Z,72.04
2019-01-20T09:44:50.197Z,71.71
2019-01-20T09:47:19.850Z,71.34
2019-01-20T09:49:49.449Z,70.72
2019-01-20T09:52:19.079Z,70.93
2019-01-20T09:54:48.697Z,70.63
2019-01-20T09:57:18.037Z,70.72
2019-01-20T09:59:47.640Z,70.98
2019-01-20T10:02:17.258Z,70.72
2019-01-20T10:04:46.633Z,70.77
2019-01-20T10:07:16.258Z,70.26
2019-01-20T10:09:45.580Z,69.77
2019-01-20T10:12:15.241Z,69.51
2019-01-20T10:14:44.817Z,69.49
2019-01-20T10:17:14.446Z,69.00
2019-01-20T10:19:43.780Z,69.25
2019-01-20T10:22:13.762Z,69.47
2019-01-20T10:24:44.825Z,69.70
2019-01-20T10:27:14.204Z,68.82
2019-01-20T10:29:43.799Z,68.53
2019-01-20T10:32:13.398Z,68.17
2019-01-20T10:34:43.247Z,68.06
2019-01-20T10:37:12.643Z,67.75
2019-01-20T10:39:42.311Z,67.28
2019-01-20T10:42:11.921Z,67.46
2019-01-20T10:44:41.305Z,67.97
2019-01-20T10:47:10.902Z,67.43
2019-01-20T10:49:40.551Z,66.23
2019-01-20T10:52:11.203Z,65.31
2019-01-20T10:54:40.529Z,62.52
2019-01-20T10:57:09.877Z,60.61
2019-01-20T10:59:39.280Z,57.22
2019-01-20T11:02:08.603Z,53.66
2019-01-20T11:04:38.197Z,51.95
2019-01-20T11:07:07.544Z,50.05
2019-01-20T11:09:37.104Z,47.47
2019-01-20T11:12:06.680Z,44.90
2019-01-20T11:14:36.011Z,42.31
2019-01-20T11:17:05.312Z,45.99
2019-01-20T11:19:34.803Z,45.32
2019-01-20T11:22:04.114Z,42.62
2019-01-20T11:24:36.570Z,41.85
2019-01-20T11:27:05.935Z,42.92
2019-01-20T11:29:39.382Z,40.83
2019-01-20T11:32:09.037Z,38.24
2019-01-20T11:34:39.953Z,36.73
2019-01-20T11:37:09.520Z,36.92
2019-01-20T11:39:38.835Z,36.09
2019-01-20T11:42:08.181Z,34.95
2019-01-20T11:44:37.607Z,34.36
2019-01-20T11:47:06.941Z,33.74
2019-01-20T11:49:36.526Z,32.70
2019-01-20T11:52:06.069Z,33.66
2019-01-20T11:54:35.633Z,33.33
2019-01-20T11:57:05.229Z,32.49
2019-01-20T11:59:34.572Z,33.29
2019-01-20T12:02:04.001Z,32.75
2019-01-20T12:04:33.722Z,34.39
2019-01-20T12:07:03.072Z,33.80
2019-01-20T12:09:32.680Z,32.39
2019-01-20T12:12:02.018Z,32.80
2019-01-20T12:14:31.616Z,37.94
2019-01-20T12:17:01.225Z,36.17
2019-01-20T12:19:30.588Z,35.08
2019-01-20T12:22:00.172Z,35.02
2019-01-20T12:24:29.762Z,33.82
2019-01-20T12:26:59.405Z,33.62
2019-01-20T12:29:28.995Z,33.23
2019-01-20T12:31:58.556Z,33.79
2019-01-20T12:34:28.137Z,36.65
2019-01-20T12:36:57.728Z,35.00
2019-01-20T12:39:27.312Z,35.00
2019-01-20T12:41:56.893Z,34.56
2019-01-20T12:44:31.493Z,34.08
2019-01-20T12:47:06.119Z,35.33
2019-01-20T12:49:41.237Z,33.83
2019-01-20T12:52:11.940Z,36.86
2019-01-20T12:54:41.278Z,36.58
2019-01-20T12:57:10.600Z,39.81
2019-01-20T12:59:40.269Z,39.28
2019-01-20T13:02:09.966Z,39.46
2019-01-20T13:04:39.573Z,40.15
2019-01-20T13:07:09.182Z,40.88
2019-01-20T13:09:38.766Z,41.62
2019-01-20T13:12:08.321Z,42.64
2019-01-20T13:14:39.112Z,43.52
2019-01-20T13:17:08.614Z,45.17
2019-01-20T13:19:38.194Z,46.91
2019-01-20T13:22:07.772Z,48.20
2019-01-20T13:24:37.341Z,48.63
2019-01-20T13:27:06.932Z,48.55
2019-01-20T13:29:37.138Z,49.23
2019-01-20T13:32:09.164Z,49.08
2019-01-20T13:34:38.571Z,51.15
2019-01-20T13:37:08.145Z,48.87
2019-01-20T13:39:37.736Z,50.58
2019-01-20T13:42:07.068Z,49.43
2019-01-20T13:44:36.401Z,50.17
2019-01-20T13:47:06.088Z,51.00
2019-01-20T13:49:35.680Z,51.29
2019-01-20T13:52:05.603Z,51.46
2019-01-20T13:54:35.191Z,51.10
2019-01-20T13:57:04.540Z,50.66
2019-01-20T13:59:33.877Z,49.70
2019-01-20T14:02:03.490Z,49.94
2019-01-20T14:04:32.832Z,49.57
2019-01-20T14:07:02.161Z,49.88
2019-01-20T14:09:39.259Z,49.63
2019-01-20T14:12:08.806Z,48.28
2019-01-20T14:14:38.393Z,49.48
2019-01-20T14:17:08.016Z,50.53
2019-01-20T14:19:37.628Z,50.29
2019-01-20T14:22:13.123Z,50.73
2019-01-20T14:24:42.931Z,51.44
2019-01-20T14:27:12.545Z,51.92
2019-01-20T14:29:42.723Z,51.91
2019-01-20T14:32:15.252Z,52.47
2019-01-20T14:34:44.793Z,52.22
2019-01-20T14:37:16.028Z,52.21
2019-01-20T14:39:45.944Z,52.87
2019-01-20T14:42:16.333Z,52.89
2019-01-20T14:44:47.525Z,53.04
2019-01-20T14:47:17.292Z,53.49
2019-01-20T14:49:46.889Z,52.95
2019-01-20T14:52:16.203Z,53.45
2019-01-20T14:54:45.556Z,53.44
2019-01-20T14:57:14.889Z,53.93
2019-01-20T14:59:44.522Z,53.71
2019-01-20T15:02:17.430Z,53.97
2019-01-20T15:04:48.025Z,54.49
2019-01-20T15:07:18.040Z,55.32
2019-01-20T15:09:50.082Z,55.44
2019-01-20T15:12:20.510Z,55.64
2019-01-20T15:14:51.056Z,56.24
2019-01-20T15:17:21.668Z,56.79
2019-01-20T15:19:51.079Z,56.68
2019-01-20T15:22:20.703Z,56.79
2019-01-20T15:24:50.061Z,57.17
2019-01-20T15:27:21.230Z,57.87
2019-01-20T15:29:50.840Z,57.66
2019-01-20T15:32:20.615Z,58.22
2019-01-20T15:34:51.953Z,58.45
2019-01-20T15:37:23.264Z,58.46
2019-01-20T15:39:52.586Z,59.13
2019-01-20T15:42:21.964Z,58.88
2019-01-20T15:44:51.326Z,59.81
2019-01-20T15:47:22.508Z,59.63
2019-01-20T15:49:52.938Z,60.07
2019-01-20T15:52:22.506Z,60.87
2019-01-20T15:54:52.930Z,60.67
2019-01-20T15:57:22.607Z,60.55
2019-01-20T15:59:52.489Z,60.83
2019-01-20T16:02:22.153Z,61.01
2019-01-20T16:04:52.789Z,61.41
2019-01-20T16:07:22.339Z,62.13
2019-01-20T16:09:54.354Z,62.20
2019-01-20T16:12:23.760Z,62.12
2019-01-20T16:14:53.371Z,62.32
2019-01-20T16:17:22.785Z,62.55
2019-01-20T16:19:52.668Z,62.76
2019-01-20T16:22:22.005Z,63.17
2019-01-20T16:24:51.355Z,64.17
2019-01-20T16:27:20.750Z,63.62
2019-01-20T16:29:50.116Z,63.76
2019-01-20T16:32:19.748Z,64.04
2019-01-20T16:34:49.384Z,64.27
2019-01-20T16:37:18.977Z,64.27
2019-01-20T16:39:49.049Z,64.02
2019-01-20T16:42:18.668Z,63.93
2019-01-20T16:44:48.284Z,63.97
2019-01-20T16:47:17.684Z,64.19
2019-01-20T16:49:47.017Z,64.49
2019-01-20T16:52:16.697Z,64.56
2019-01-20T16:54:46.032Z,64.97
2019-01-20T16:57:15.973Z,64.78
2019-01-20T16:59:45.634Z,64.94
2019-01-20T17:02:17.385Z,65.31
2019-01-20T17:04:46.724Z,65.37
2019-01-20T17:07:16.735Z,65.37
2019-01-20T17:09:47.319Z,65.79
2019-01-20T17:12:16.998Z,66.10
2019-01-20T17:14:46.850Z,66.42
2019-01-20T17:17:16.599Z,66.31
2019-01-20T17:19:46.033Z,66.40
2019-01-20T17:22:15.650Z,66.67
2019-01-20T17:24:45.508Z,66.75
2019-01-20T17:27:14.950Z,66.94
2019-01-20T17:29:44.689Z,66.99
2019-01-20T17:32:14.370Z,67.46
2019-01-20T17:34:43.736Z,67.41
2019-01-20T17:37:14.054Z,67.33
2019-01-20T17:39:43.753Z,67.46
2019-01-20T17:42:13.340Z,67.57
2019-01-20T17:44:42.942Z,67.58
2019-01-20T17:47:12.626Z,67.79
2019-01-20T17:49:42.308Z,67.61
2019-01-20T17:52:12.027Z,67.44
2019-01-20T17:54:43.317Z,67.48
2019-01-20T17:57:12.779Z,67.59
2019-01-20T17:59:42.515Z,67.51
2019-01-20T18:02:12.118Z,67.58
2019-01-20T18:04:41.834Z,67.94
2019-01-20T18:07:11.436Z,68.10
2019-01-20T18:09:41.205Z,68.13
2019-01-20T18:12:11.121Z,68.24
2019-01-20T18:14:40.776Z,68.33
2019-01-20T18:17:10.205Z,68.58
2019-01-20T18:19:39.520Z,68.62
2019-01-20T18:22:08.884Z,69.19
2019-01-20T18:24:38.681Z,69.39
2019-01-20T18:27:09.182Z,69.50
2019-01-20T18:29:39.601Z,69.60
2019-01-20T18:32:09.189Z,70.29
2019-01-20T18:34:38.555Z,70.05
2019-01-20T18:37:11.895Z,70.41
2019-01-20T18:39:41.708Z,70.33
2019-01-20T18:42:11.329Z,70.32
2019-01-20T18:44:40.909Z,70.30
2019-01-20T18:47:10.937Z,70.17
2019-01-20T18:49:40.531Z,70.45
2019-01-20T18:52:10.136Z,71.04
2019-01-20T18:54:39.469Z,71.15
2019-01-20T18:57:08.811Z,70.91
2019-01-20T18:59:39.399Z,71.07
2019-01-20T19:02:09.868Z,72.08
2019-01-20T19:04:39.564Z,71.88
2019-01-20T19:07:09.230Z,71.85
2019-01-20T19:09:39.094Z,72.04
2019-01-20T19:12:08.576Z,71.98
2019-01-20T19:14:38.243Z,72.01
2019-01-20T19:17:09.095Z,71.83
2019-01-20T19:19:38.716Z,71.77
2019-01-20T19:22:08.409Z,72.74
2019-01-20T19:24:38.314Z,72.51
2019-01-20T19:27:07.999Z,72.29
2019-01-20T19:29:38.049Z,72.43
2019-01-20T19:32:07.814Z,72.60
2019-01-20T19:34:37.460Z,72.87
2019-01-20T19:37:07.317Z,72.72
2019-01-20T19:39:36.983Z,72.70
2019-01-20T19:42:06.835Z,72.75
2019-01-20T19:44:36.335Z,72.93
2019-01-20T19:47:06.445Z,73.18
2019-01-20T19:49:36.436Z,73.14
2019-01-20T19:52:06.635Z,73.33
2019-01-20T19:54:36.219Z,73.56
2019-01-20T19:57:05.818Z,73.63
2019-01-20T19:59:35.464Z,73.84
2019-01-20T20:02:05.160Z,73.89
2019-01-20T20:04:36.580Z,74.16
2019-01-20T20:07:06.058Z,74.02
2019-01-20T20:09:35.489Z,74.01
2019-01-20T20:12:05.366Z,74.19
2019-01-20T20:14:34.789Z,74.29
2019-01-20T20:17:04.433Z,74.60
2019-01-20T20:19:34.454Z,74.63
2019-01-20T20:22:04.222Z,74.65
2019-01-20T20:24:34.036Z,75.10
2019-01-20T20:27:03.501Z,75.31
2019-01-20T20:29:33.006Z,75.69
2019-01-20T20:32:02.625Z,75.75
2019-01-20T20:34:40.544Z,75.87
2019-01-20T20:37:10.574Z,76.23
2019-01-20T20:39:40.750Z,75.82
2019-01-20T20:42:10.379Z,75.83
2019-01-20T20:44:41.401Z,75.71
2019-01-20T20:47:11.831Z,76.36
2019-01-20T20:49:41.966Z,76.50
2019-01-20T20:52:17.542Z,76.31
2019-01-20T20:54:47.950Z,76.36
2019-01-20T20:57:17.591Z,76.38
2019-01-20T20:59:47.271Z,76.19
2019-01-20T21:02:16.877Z,76.39
2019-01-20T21:04:46.389Z,76.53
2019-01-20T21:07:15.958Z,76.62
2019-01-20T21:09:45.447Z,77.25
2019-01-20T21:12:17.985Z,77.86
2019-01-20T21:14:46.806Z,77.61
2019-01-20T21:17:17.828Z,77.20
2019-01-20T21:19:47.203Z,77.09
2019-01-20T21:22:16.575Z,77.22
2019-01-20T21:24:47.772Z,77.29
2019-01-20T21:27:18.958Z,77.05
2019-01-20T21:29:48.669Z,77.65
2019-01-20T21:32:18.146Z,77.19
2019-01-20T21:34:47.729Z,77.33
2019-01-20T21:37:17.336Z,77.68
2019-01-20T21:39:46.971Z,78.48
2019-01-20T21:42:16.600Z,78.05
2019-01-20T21:44:45.956Z,77.76
2019-01-20T21:47:15.389Z,77.87
2019-01-20T21:49:44.744Z,77.32
2019-01-20T21:52:14.961Z,77.48
2019-01-20T21:54:44.588Z,77.53
2019-01-20T21:57:14.237Z,77.29
2019-01-20T21:59:44.824Z,77.59
2019-01-20T22:02:15.124Z,77.90
2019-01-20T22:04:46.181Z,77.83
2019-01-20T22:07:15.787Z,77.73
2019-01-20T22:09:46.424Z,77.76
2019-01-20T22:12:18.698Z,77.75
2019-01-20T22:14:49.404Z,77.80
2019-01-20T22:17:18.719Z,77.50
2019-01-20T22:19:48.113Z,77.79
2019-01-20T22:22:17.554Z,77.86
2019-01-20T22:24:47.411Z,77.93
2019-01-20T22:27:16.813Z,78.08
2019-01-20T22:29:46.914Z,78.60
2019-01-20T22:32:16.766Z,78.73
2019-01-20T22:34:46.467Z,78.58
2019-01-20T22:37:24.585Z,78.67
2019-01-20T22:39:54.267Z,78.38
2019-01-20T22:42:26.297Z,78.38
2019-01-20T22:44:57.543Z,78.31
2019-01-20T22:47:27.289Z,78.15
2019-01-20T22:49:59.252Z,78.09
2019-01-20T22:52:30.293Z,78.06
2019-01-20T22:55:00.859Z,78.08
2019-01-20T22:57:30.185Z,78.34
2019-01-20T22:59:59.767Z,78.50
2019-01-20T23:02:30.813Z,78.37
2019-01-20T23:05:00.648Z,78.11
2019-01-20T23:07:31.295Z,78.07
2019-01-20T23:10:01.240Z,78.20
2019-01-20T23:12:31.138Z,78.19
2019-01-20T23:15:00.572Z,78.15
2019-01-20T23:17:31.258Z,78.28
2019-01-20T23:20:01.970Z,78.24
2019-01-20T23:22:33.753Z,78.18
2019-01-20T23:25:03.574Z,78.66
2019-01-20T23:27:32.958Z,79.08
2019-01-20T23:30:02.262Z,79.41
2019-01-20T23:32:31.885Z,79.56
2019-01-20T23:35:02.375Z,79.71
2019-01-20T23:37:31.721Z,79.57
2019-01-20T23:40:02.725Z,78.51
2019-01-20T23:42:33.061Z,78.06
2019-01-20T23:45:02.675Z,78.31
2019-01-20T23:47:34.526Z,79.28
2019-01-20T23:50:07.398Z,79.66
2019-01-20T23:52:36.767Z,79.51
2019-01-20T23:55:08.436Z,79.50
2019-01-20T23:57:37.789Z,79.47
